Time;durP1;ratioP1;P1;durP2;ratioP2;P2;SDS_P1;SDS_P2;PMS_P1;PMS_P2;Temp;Humidity;BMP_temperature;BMP_pressure;BME280_temperature;BME280_humidity;BME280_pressure;Samples;Min_cycle;Max_cycle;Signal;HPM_P1;HPM_P2
2022/12/05 05:00:42;;;;;;;1999.90;999.90;;;3.50;99.90;;;;;;5957719;22;20017;-80
2022/12/05 05:03:23;;;;;;;1999.90;999.90;;;3.50;99.90;;;;;;4976635;28;20047;-80
2022/12/05 05:05:53;;;;;;;1999.90;999.90;;;3.50;99.90;;;;;;4974731;28;20031;-80
2022/12/05 05:08:21;;;;;;;1999.90;999.90;;;3.50;99.90;;;;;;4975540;28;20412;-79
2022/12/05 05:11:12;;;;;;;1999.90;999.90;;;3.40;99.90;;;;;;4977068;28;20401;-79
2022/12/05 05:13:38;;;;;;;1999.90;999.90;;;3.40;99.90;;;;;;4979647;28;20097;-78
2022/12/05 05:16:04;;;;;;;1999.90;999.90;;;3.50;99.90;;;;;;4978703;28;20031;-78
2022/12/05 05:18:30;;;;;;;1999.90;999.90;;;3.40;99.90;;;;;;4977140;28;20042;-78
2022/12/05 05:20:55;;;;;;;1999.90;999.90;;;3.50;99.90;;;;;;4978369;28;20031;-78
2022/12/05 05:23:21;;;;;;;1999.90;999.90;;;3.50;99.90;;;;;;4976714;28;20039;-79
2022/12/05 05:25:52;;;;;;;1999.90;999.90;;;3.50;99.90;;;;;;4977057;28;20036;-78
2022/12/05 05:28:17;;;;;;;1999.90;999.90;;;3.50;99.90;;;;;;4976868;28;20046;-79
2022/12/05 05:30:43;;;;;;;1999.90;999.90;;;3.50;99.90;;;;;;4978127;28;20496;-78
2022/12/05 05:33:08;;;;;;;1999.90;999.90;;;3.50;99.90;;;;;;4978106;28;20039;-79
2022/12/05 05:35:37;;;;;;;1999.90;999.90;;;3.50;99.90;;;;;;4978402;28;20032;-78
2022/12/05 05:38:03;;;;;;;1999.90;999.90;;;3.50;99.90;;;;;;4978276;28;20047;-78
2022/12/05 05:40:29;;;;;;;1999.90;999.90;;;3.50;99.90;;;;;;4976179;28;20509;-78
2022/12/05 05:42:55;;;;;;;1999.90;999.90;;;3.50;99.90;;;;;;4978177;28;20180;-79
2022/12/05 05:45:20;;;;;;;1999.90;999.90;;;3.50;99.90;;;;;;4976732;28;20035;-78
2022/12/05 05:47:48;;;;;;;1999.90;999.90;;;3.60;99.90;;;;;;4977692;28;20125;-78
2022/12/05 05:50:14;;;;;;;1999.90;999.90;;;3.60;99.90;;;;;;4976161;28;20032;-79
2022/12/05 05:52:40;;;;;;;1999.90;999.90;;;3.60;99.90;;;;;;4977862;28;20202;-79
2022/12/05 05:55:07;;;;;;;1999.90;999.90;;;3.70;99.90;;;;;;4976619;28;20106;-79
2022/12/05 05:57:34;;;;;;;1999.90;999.90;;;3.70;99.90;;;;;;4976578;28;20042;-79
2022/12/05 05:59:59;;;;;;;1999.90;999.90;;;3.70;99.90;;;;;;4976168;28;20032;-78
2022/12/05 06:02:25;;;;;;;1999.90;999.90;;;3.70;99.90;;;;;;4976219;28;20047;-78
2022/12/05 06:04:50;;;;;;;1999.90;999.90;;;3.70;99.90;;;;;;4977176;28;20034;-79
2022/12/05 06:07:16;;;;;;;1999.90;999.90;;;3.70;99.90;;;;;;4977531;28;20075;-79
2022/12/05 06:09:41;;;;;;;1999.90;999.90;;;3.70;99.90;;;;;;4976832;28;20086;-79
2022/12/05 06:12:07;;;;;;;1999.90;999.90;;;3.70;99.90;;;;;;4977410;28;20122;-79
2022/12/05 06:14:33;;;;;;;1999.90;999.90;;;3.70;99.90;;;;;;4976423;28;20429;-79
2022/12/05 06:16:58;;;;;;;1999.90;999.90;;;3.80;99.90;;;;;;4975987;28;20448;-79
2022/12/05 06:19:24;;;;;;;1999.90;999.90;;;3.80;99.90;;;;;;4976475;28;20389;-80
2022/12/05 06:21:50;;;;;;;1999.90;999.90;;;3.70;99.90;;;;;;4977139;28;20118;-80
2022/12/05 06:24:16;;;;;;;1999.90;999.90;;;3.70;99.90;;;;;;4976170;28;20528;-80
2022/12/05 06:26:42;;;;;;;1999.90;999.90;;;3.70;99.90;;;;;;4976082;28;20476;-81
2022/12/05 06:29:08;;;;;;;1999.90;999.90;;;3.70;99.90;;;;;;4977775;28;20039;-79
2022/12/05 06:31:34;;;;;;;1999.90;999.90;;;3.70;99.90;;;;;;4976751;28;20796;-78
2022/12/05 06:34:01;;;;;;;1999.90;999.90;;;3.70;99.90;;;;;;4975983;28;20044;-79
2022/12/05 06:36:28;;;;;;;1999.90;999.90;;;3.70;99.90;;;;;;4975813;28;20539;-79
2022/12/05 06:38:58;;;;;;;1999.90;999.90;;;3.60;99.90;;;;;;4975931;28;20066;-79
2022/12/05 06:41:26;;;;;;;1999.90;999.90;;;3.60;99.90;;;;;;4977099;28;20042;-79
2022/12/05 06:43:57;;;;;;;1999.90;999.90;;;3.60;99.90;;;;;;4977232;28;20035;-79
2022/12/05 06:46:24;;;;;;;1999.90;999.90;;;3.70;99.90;;;;;;4976584;28;20032;-78
2022/12/05 06:48:52;;;;;;;1999.90;999.90;;;3.60;99.90;;;;;;4975971;28;20046;-79
2022/12/05 06:51:18;;;;;;;1999.90;999.90;;;3.60;99.90;;;;;;4975651;28;20087;-79
2022/12/05 06:53:44;;;;;;;1999.90;999.90;;;3.60;99.90;;;;;;4977331;28;20102;-79
2022/12/05 06:56:13;;;;;;;1999.90;999.90;;;3.70;99.90;;;;;;4975978;28;20032;-78
2022/12/05 06:58:40;;;;;;;1999.90;999.90;;;3.80;99.90;;;;;;4975852;28;20042;-80
2022/12/05 07:03:57;;;;;;;1999.90;999.90;;;3.70;99.90;;;;;;4977664;28;20366;-78
2022/12/05 07:06:23;;;;;;;1999.90;999.90;;;3.70;99.90;;;;;;4979177;28;20163;-82
2022/12/05 07:08:49;;;;;;;1999.90;999.90;;;3.80;99.90;;;;;;4982382;28;20214;-83
2022/12/05 07:11:14;;;;;;;1999.90;999.90;;;3.70;99.90;;;;;;4979525;28;20031;-79
2022/12/05 07:13:40;;;;;;;1999.90;999.90;;;3.80;99.90;;;;;;4977304;28;20054;-80
2022/12/05 07:16:07;;;;;;;1999.90;999.90;;;3.80;99.90;;;;;;4977104;28;20035;-75
2022/12/05 07:18:33;;;;;;;1999.90;999.90;;;3.90;99.90;;;;;;4975569;28;20039;-75
2022/12/05 07:21:02;;;;;;;1999.90;999.90;;;3.90;99.90;;;;;;4976617;28;20039;-75
2022/12/05 07:23:27;;;;;;;1999.90;999.90;;;3.90;99.90;;;;;;4975383;28;20036;-75
2022/12/05 07:25:53;;;;;;;1999.90;999.90;;;3.90;99.90;;;;;;4991092;28;20035;-75
2022/12/05 07:28:19;;;;;;;1999.90;999.90;;;3.90;99.90;;;;;;4994529;28;20050;-77
2022/12/05 07:30:45;;;;;;;1999.90;999.90;;;4.00;99.90;;;;;;4995719;28;20031;-75
2022/12/05 07:33:10;;;;;;;1999.90;999.90;;;4.00;99.90;;;;;;4995242;28;20039;-75
2022/12/05 07:35:36;;;;;;;1999.90;999.90;;;4.00;99.90;;;;;;4995931;28;20034;-76
2022/12/05 07:38:02;;;;;;;1999.90;999.90;;;4.00;99.90;;;;;;4996223;28;20042;-76
2022/12/05 07:40:27;;;;;;;1999.90;999.90;;;4.00;99.90;;;;;;4995508;28;20125;-75
2022/12/05 07:42:53;;;;;;;1999.90;999.90;;;4.00;99.90;;;;;;4996315;28;20069;-75
2022/12/05 07:45:20;;;;;;;1999.90;999.90;;;4.00;99.90;;;;;;4996138;28;20082;-75
2022/12/05 07:47:46;;;;;;;1999.90;999.90;;;4.00;99.90;;;;;;4994458;28;20043;-75
2022/12/05 07:50:12;;;;;;;1999.90;999.90;;;4.00;99.90;;;;;;4994040;28;20034;-75
2022/12/05 07:52:38;;;;;;;1999.90;999.90;;;4.10;99.90;;;;;;4996046;28;20038;-76
2022/12/05 07:55:04;;;;;;;1999.90;999.90;;;4.10;99.90;;;;;;4995719;28;20484;-76
2022/12/05 07:57:30;;;;;;;1999.90;999.90;;;4.20;99.90;;;;;;4995806;28;20034;-75
2022/12/05 07:59:56;;;;;;;1999.90;999.90;;;4.20;99.90;;;;;;4995617;28;20069;-76
2022/12/05 08:02:22;;;;;;;1999.90;999.90;;;4.20;99.90;;;;;;4995342;28;20707;-75
2022/12/05 08:04:47;;;;;;;1999.90;999.90;;;4.20;99.90;;;;;;4995757;28;20031;-75
2022/12/05 08:07:13;;;;;;;1999.90;999.90;;;4.30;99.90;;;;;;4995678;28;20047;-75
2022/12/05 08:09:38;;;;;;;1999.90;999.90;;;4.20;99.90;;;;;;4974885;28;20031;-75
2022/12/05 08:12:04;;;;;;;1999.90;999.90;;;4.20;99.90;;;;;;4973595;28;20035;-75
2022/12/05 08:14:29;;;;;;;1999.90;999.90;;;4.20;99.90;;;;;;4974275;28;20066;-75
2022/12/05 08:16:55;;;;;;;1999.90;999.90;;;4.20;99.90;;;;;;4975341;28;20143;-76
2022/12/05 08:19:21;;;;;;;1999.90;999.90;;;4.20;99.90;;;;;;4975806;28;20059;-75
2022/12/05 08:21:46;;;;;;;1999.90;999.90;;;4.20;99.90;;;;;;4973597;28;20039;-75
2022/12/05 08:24:12;;;;;;;1999.90;999.90;;;4.20;99.90;;;;;;4974159;28;20035;-75
2022/12/05 08:26:38;;;;;;;1999.90;999.90;;;4.20;99.90;;;;;;4975711;28;20153;-75
2022/12/05 08:29:13;;;;;;;1999.90;999.90;;;4.20;99.90;;;;;;4975505;28;20487;-75
2022/12/05 08:31:46;;;;;;;1999.90;999.90;;;4.30;99.90;;;;;;4973399;28;20035;-76
2022/12/05 08:34:12;;;;;;;1999.90;999.90;;;4.30;99.90;;;;;;4975735;28;20473;-75
2022/12/05 08:36:37;;;;;;;1999.90;999.90;;;4.20;99.90;;;;;;4974073;28;20464;-75
2022/12/05 08:39:06;;;;;;;1999.90;999.90;;;4.20;99.90;;;;;;4975407;28;20039;-76
2022/12/05 08:41:32;;;;;;;1999.90;999.90;;;4.20;99.90;;;;;;4974714;28;20031;-76
2022/12/05 08:44:04;;;;;;;1999.90;999.90;;;4.30;99.90;;;;;;4975417;28;20402;-76
2022/12/05 08:46:31;;;;;;;1999.90;999.90;;;4.30;99.90;;;;;;4973608;28;20721;-75
2022/12/05 08:48:57;;;;;;;1999.90;999.90;;;4.40;99.90;;;;;;4990124;28;20049;-75
2022/12/05 08:51:23;;;;;;;1999.90;999.90;;;4.50;99.90;;;;;;4994156;28;20471;-75
2022/12/05 08:53:48;;;;;;;1999.90;999.90;;;4.50;99.90;;;;;;4993320;28;20039;-76
2022/12/05 08:56:14;;;;;;;1999.90;999.90;;;4.60;99.90;;;;;;4994881;28;20027;-75
2022/12/05 08:58:39;;;;;;;1999.90;999.90;;;4.60;99.90;;;;;;4994444;28;20039;-75
2022/12/05 09:01:07;;;;;;;1999.90;999.90;;;4.50;99.90;;;;;;4992197;28;20035;-75
2022/12/05 09:03:33;;;;;;;1999.90;999.90;;;4.50;99.90;;;;;;4994459;28;20408;-75
2022/12/05 09:06:18;;;;;;;1999.90;999.90;;;4.60;99.90;;;;;;4994842;28;20039;-74
2022/12/05 09:08:45;;;;;;;1999.90;999.90;;;4.70;99.90;;;;;;4994753;28;20617;-74
2022/12/05 09:11:14;;;;;;;1999.90;999.90;;;4.80;99.90;;;;;;4993523;28;20109;-74
2022/12/05 09:13:40;;;;;;;1999.90;999.90;;;4.80;99.90;;;;;;4994539;28;20034;-76
2022/12/05 09:16:15;;;;;;;1999.90;999.90;;;4.80;99.90;;;;;;4994463;28;20038;-74
2022/12/05 09:18:41;;;;;;;1999.90;999.90;;;4.80;99.90;;;;;;4994226;28;20043;-75
2022/12/05 09:21:09;;;;;;;1999.90;999.90;;;4.80;99.90;;;;;;4993573;28;20035;-75
2022/12/05 09:23:35;;;;;;;1999.90;999.90;;;4.90;99.90;;;;;;4994306;28;20041;-76
2022/12/05 09:26:01;;;;;;;1999.90;999.90;;;5.00;99.90;;;;;;4994387;28;20042;-74
2022/12/05 09:28:27;;;;;;;1999.90;999.90;;;5.00;99.90;;;;;;4993812;28;20523;-75
2022/12/05 09:30:56;;;;;;;1999.90;999.90;;;5.10;99.90;;;;;;4993619;28;20039;-79
2022/12/05 09:33:22;;;;;;;1999.90;999.90;;;5.00;99.90;;;;;;4993503;28;20037;-79
2022/12/05 09:35:48;;;;;;;1999.90;999.90;;;5.10;99.90;;;;;;4993299;28;20448;-76
2022/12/05 09:38:13;;;;;;;1999.90;999.90;;;5.10;99.90;;;;;;4994296;28;20042;-79
2022/12/05 09:40:42;;;;;;;1999.90;999.90;;;5.10;99.90;;;;;;4992418;28;20556;-79
2022/12/05 09:43:26;;;;;;;1999.90;999.90;;;5.20;99.90;;;;;;4993560;28;20135;-77
2022/12/05 09:46:02;;;;;;;1999.90;999.90;;;5.20;99.90;;;;;;4994758;28;20106;-77
2022/12/05 09:48:28;;;;;;;1999.90;999.90;;;5.30;99.90;;;;;;4994954;28;20039;-74
2022/12/05 09:50:59;;;;;;;1999.90;999.90;;;5.30;99.90;;;;;;4993311;28;20031;-77
2022/12/05 09:53:31;;;;;;;1999.90;999.90;;;5.40;99.90;;;;;;4994093;28;20509;-77
2022/12/05 09:56:09;;;;;;;1999.90;999.90;;;5.40;99.90;;;;;;4994255;28;20122;-78
2022/12/05 09:58:39;;;;;;;1999.90;999.90;;;5.40;99.90;;;;;;4996340;28;20041;-77
2022/12/05 10:01:29;;;;;;;1999.90;999.90;;;5.40;99.90;;;;;;4996232;28;20030;-77
2022/12/05 10:04:43;;;;;;;1999.90;999.90;;;5.40;99.90;;;;;;4997441;28;20035;-77
2022/12/05 10:07:21;;;;;;;1999.90;999.90;;;5.40;99.90;;;;;;4998055;28;20086;-80
2022/12/05 10:10:11;;;;;;;1999.90;999.90;;;5.30;99.90;;;;;;4997750;28;20038;-79
2022/12/05 10:13:18;;;;;;;1999.90;999.90;;;5.30;99.90;;;;;;4997923;28;20085;-77
2022/12/05 10:15:49;;;;;;;1999.90;999.90;;;5.20;99.90;;;;;;4997825;28;20489;-78
2022/12/05 10:18:33;;;;;;;1999.90;999.90;;;5.30;99.90;;;;;;4996285;28;20035;-78
2022/12/05 10:21:02;;;;;;;1999.90;999.90;;;5.30;99.90;;;;;;4997240;28;20039;-80
2022/12/05 10:23:48;;;;;;;1999.90;999.90;;;5.20;99.90;;;;;;4997303;28;20118;-78
2022/12/05 10:26:15;;;;;;;1999.90;999.90;;;5.30;99.90;;;;;;4996323;28;20035;-76
2022/12/05 10:28:55;;;;;;;1999.90;999.90;;;5.30;99.90;;;;;;4996915;28;20039;-77
2022/12/05 10:31:26;;;;;;;1999.90;999.90;;;5.30;99.90;;;;;;4997669;28;20035;-80
2022/12/05 10:34:03;;;;;;;1999.90;999.90;;;5.30;99.90;;;;;;4997944;28;20047;-79
2022/12/05 10:36:29;;;;;;;1999.90;999.90;;;5.40;99.90;;;;;;4997989;28;20512;-79
2022/12/05 10:38:56;;;;;;;1999.90;999.90;;;5.40;99.90;;;;;;4997353;28;20495;-78
2022/12/05 10:41:22;;;;;;;1999.90;999.90;;;5.50;99.90;;;;;;4995051;28;20500;-79
2022/12/05 10:43:48;;;;;;;1999.90;999.90;;;5.50;99.90;;;;;;4995651;28;20045;-77
2022/12/05 10:46:15;;;;;;;1999.90;999.90;;;5.40;99.90;;;;;;4996919;28;20033;-76
2022/12/05 10:48:41;;;;;;;1999.90;999.90;;;5.40;99.90;;;;;;4997836;28;20497;-78
2022/12/05 10:51:13;;;;;;;1999.90;999.90;;;5.30;99.90;;;;;;4997747;28;20035;-78
2022/12/05 10:53:48;;;;;;;1999.90;999.90;;;5.30;99.90;;;;;;4996797;28;20447;-78
2022/12/05 10:56:43;;;;;;;1999.90;999.90;;;5.20;99.90;;;;;;4997451;28;20037;-78
2022/12/05 10:59:12;;;;;;;1999.90;999.90;;;5.20;99.90;;;;;;4995543;28;20552;-78
2022/12/05 11:01:47;;;;;;;1999.90;999.90;;;5.20;99.90;;;;;;4996109;28;20097;-80
2022/12/05 11:04:26;;;;;;;1999.90;999.90;;;5.20;99.90;;;;;;4995362;28;20042;-78
2022/12/05 11:07:00;;;;;;;1999.90;999.90;;;5.30;99.90;;;;;;4997471;28;20097;-78
2022/12/05 11:09:29;;;;;;;1999.90;999.90;;;5.40;99.90;;;;;;4997611;28;20039;-78
2022/12/05 11:12:20;;;;;;;1999.90;999.90;;;5.30;99.90;;;;;;4997412;28;20038;-78
2022/12/05 11:14:56;;;;;;;1999.90;999.90;;;5.30;99.90;;;;;;4987547;28;20072;-79
2022/12/05 11:17:34;;;;;;;1999.90;999.90;;;5.30;99.90;;;;;;4977677;28;20024;-78
2022/12/05 11:20:00;;;;;;;1999.90;999.90;;;5.40;99.90;;;;;;4977003;28;20075;-80
2022/12/05 11:22:31;;;;;;;1999.90;999.90;;;5.50;99.90;;;;;;4992450;28;20035;-82
2022/12/05 11:24:56;;;;;;;1999.90;999.90;;;5.60;99.90;;;;;;5000491;28;20031;-80
2022/12/05 11:27:31;;;;;;;1999.90;999.90;;;5.70;99.90;;;;;;4997489;28;20054;-80
2022/12/05 11:29:56;;;;;;;1999.90;999.90;;;5.60;99.90;;;;;;4997249;28;20058;-82
2022/12/05 11:32:25;;;;;;;1999.90;999.90;;;5.60;99.90;;;;;;4996025;28;20133;-79
2022/12/05 11:35:07;;;;;;;1999.90;999.90;;;5.50;99.90;;;;;;4994816;28;20034;-79
2022/12/05 11:37:39;;;;;;;1999.90;999.90;;;5.50;99.90;;;;;;4995080;28;20110;-79
2022/12/05 11:40:29;;;;;;;1999.90;999.90;;;5.50;99.90;;;;;;4996844;28;20031;-82
2022/12/05 11:42:57;;;;;;;1999.90;999.90;;;5.40;99.90;;;;;;4999495;28;20050;-80
2022/12/05 11:45:58;;;;;;;1999.90;999.90;;;5.40;99.90;;;;;;5000467;28;20077;-79
2022/12/05 11:48:49;;;;;;;1999.90;999.90;;;5.40;99.90;;;;;;5002040;28;20035;-78
2022/12/05 11:51:31;;;;;;;1999.90;999.90;;;5.40;99.90;;;;;;4995939;28;20463;-79
2022/12/05 11:54:06;;;;;;;1999.90;999.90;;;5.30;99.90;;;;;;4995850;28;20066;-80
2022/12/05 11:56:36;;;;;;;1999.90;999.90;;;5.20;99.90;;;;;;4999277;28;20027;-80
2022/12/05 11:59:23;;;;;;;1999.90;999.90;;;5.20;99.90;;;;;;4997273;28;20540;-76
2022/12/05 12:02:26;;;;;;;1999.90;999.90;;;5.20;99.90;;;;;;4995507;28;20066;-78
2022/12/05 12:05:26;;;;;;;1999.90;999.90;;;5.20;99.90;;;;;;4996079;28;20038;-76
2022/12/05 12:08:04;;;;;;;1999.90;999.90;;;5.20;99.90;;;;;;4958219;28;20054;-77
2022/12/05 12:11:01;;;;;;;1999.90;999.90;;;5.20;99.90;;;;;;4993003;28;20066;-77
2022/12/05 12:13:39;;;;;;;1999.90;999.90;;;5.10;99.90;;;;;;4993928;28;20030;-77
2022/12/05 12:16:29;;;;;;;1999.90;999.90;;;5.20;99.90;;;;;;4996142;28;20504;-77
2022/12/05 12:19:43;;;;;;;1999.90;999.90;;;5.30;99.90;;;;;;4995313;28;20043;-76
2022/12/05 12:22:26;;;;;;;1999.90;999.90;;;5.40;99.90;;;;;;4986548;28;20038;-78
2022/12/05 12:25:13;;;;;;;1999.90;999.90;;;5.50;99.90;;;;;;4994083;28;20041;-79
2022/12/05 12:28:19;;;;;;;1999.90;999.90;;;5.50;99.90;;;;;;5023708;22;20054;-77
2022/12/05 12:31:10;;;;;;;1999.90;999.90;;;5.60;99.90;;;;;;5013022;28;20047;-78
2022/12/05 12:33:49;;;;;;;1999.90;999.90;;;5.70;99.90;;;;;;5015833;28;20035;-80
2022/12/05 12:36:26;;;;;;;1999.90;999.90;;;5.80;99.90;;;;;;5015974;28;20130;-78
2022/12/05 12:39:13;;;;;;;1999.90;999.90;;;5.80;99.90;;;;;;5014557;28;20021;-77
2022/12/05 12:41:50;;;;;;;1999.90;999.90;;;5.90;99.90;;;;;;5015707;28;20034;-78
2022/12/05 12:44:47;;;;;;;1999.90;999.90;;;5.80;99.90;;;;;;5015673;28;20030;-77
2022/12/05 12:47:33;;;;;;;1999.90;999.90;;;5.80;99.90;;;;;;5016514;28;20052;-77
2022/12/05 12:50:24;;;;;;;1999.90;999.90;;;5.80;99.90;;;;;;5016048;28;20790;-78
2022/12/05 12:53:14;;;;;;;1999.90;999.90;;;5.80;99.90;;;;;;5014792;28;20511;-78
2022/12/05 12:55:59;;;;;;;1999.90;999.90;;;5.70;99.90;;;;;;5014680;28;20054;-78
2022/12/05 12:58:51;;;;;;;1999.90;999.90;;;5.70;99.90;;;;;;5014809;28;20537;-78
2022/12/05 13:01:39;;;;;;;1999.90;999.90;;;5.70;99.90;;;;;;5016715;28;20041;-79
2022/12/05 13:04:21;;;;;;;1999.90;999.90;;;5.70;99.90;;;;;;5013613;28;20170;-79
2022/12/05 13:06:54;;;;;;;1999.90;999.90;;;5.70;99.90;;;;;;5015004;28;20140;-78
2022/12/05 13:09:46;;;;;;;1999.90;999.90;;;5.70;99.90;;;;;;5014965;28;20046;-78
2022/12/05 13:12:23;;;;;;;1999.90;999.90;;;5.70;99.90;;;;;;5011780;28;20046;-78
2022/12/05 13:14:53;;;;;;;1999.90;999.90;;;5.70;99.90;;;;;;5015121;28;20121;-78
2022/12/05 13:17:21;;;;;;;1999.90;999.90;;;5.70;99.90;;;;;;5013141;28;20034;-78
2022/12/05 13:19:52;;;;;;;1999.90;999.90;;;5.70;99.90;;;;;;5014531;28;20074;-78
2022/12/05 13:22:20;;;;;;;1999.90;999.90;;;5.80;99.90;;;;;;5013510;28;20037;-79
2022/12/05 13:24:46;;;;;;;1999.90;999.90;;;5.70;99.90;;;;;;5014731;28;20562;-78
2022/12/05 13:27:18;;;;;;;1999.90;999.90;;;5.60;99.90;;;;;;5013604;28;20516;-78
2022/12/05 13:29:59;;;;;;;1999.90;999.90;;;5.60;99.90;;;;;;5014654;28;20114;-78
2022/12/05 13:32:39;;;;;;;1999.90;999.90;;;5.60;99.90;;;;;;5014504;28;20094;-78
2022/12/05 13:43:48;;;;;;;1999.90;999.90;;;5.70;99.90;;;;;;5018561;28;20117;-78
2022/12/05 13:46:34;;;;;;;1999.90;999.90;;;5.70;99.90;;;;;;5018008;28;20038;-78
2022/12/05 13:49:23;;;;;;;1999.90;999.90;;;5.80;99.90;;;;;;5017391;28;20038;-79
2022/12/05 13:51:49;;;;;;;1999.90;999.90;;;5.80;99.90;;;;;;5016878;28;20031;-78
2022/12/05 13:54:24;;;;;;;1999.90;999.90;;;5.80;99.90;;;;;;5017197;28;20038;-78
2022/12/05 13:56:57;;;;;;;1999.90;999.90;;;5.90;99.90;;;;;;5016100;28;20031;-79
2022/12/05 14:00:02;;;;;;;1999.90;999.90;;;5.70;99.90;;;;;;5016411;28;20515;-78
2022/12/05 14:02:42;;;;;;;1999.90;999.90;;;5.60;99.90;;;;;;5009387;28;20105;-79
2022/12/05 14:05:16;;;;;;;1999.90;999.90;;;5.60;99.90;;;;;;4990046;28;20504;-79
2022/12/05 14:07:49;;;;;;;1999.90;999.90;;;5.60;99.90;;;;;;4981791;28;20049;-78
2022/12/05 14:10:19;;;;;;;1999.90;999.90;;;5.50;99.90;;;;;;4994845;28;20035;-78
2022/12/05 14:12:56;;;;;;;1999.90;999.90;;;5.50;99.90;;;;;;4997303;28;20125;-78
2022/12/05 14:15:34;;;;;;;1999.90;999.90;;;5.50;99.90;;;;;;4997048;28;20493;-77
2022/12/05 14:18:14;;;;;;;1999.90;999.90;;;5.50;99.90;;;;;;4999226;28;20035;-78
2022/12/05 14:20:54;;;;;;;1999.90;999.90;;;5.50;99.90;;;;;;4994126;28;20122;-78
2022/12/05 14:23:46;;;;;;;1999.90;999.90;;;5.40;99.90;;;;;;4995599;28;20103;-80
2022/12/05 14:26:30;;;;;;;1999.90;999.90;;;5.50;99.90;;;;;;4993123;28;20501;-79
2022/12/05 14:29:15;;;;;;;1999.90;999.90;;;5.40;99.90;;;;;;4993290;28;20093;-78
2022/12/05 14:32:01;;;;;;;1999.90;999.90;;;5.40;99.90;;;;;;4998658;28;20485;-78
2022/12/05 14:34:28;;;;;;;1999.90;999.90;;;5.40;99.90;;;;;;4993648;28;20039;-78
2022/12/05 14:36:56;;;;;;;1999.90;999.90;;;5.40;99.90;;;;;;4978710;28;20036;-79
2022/12/05 14:39:28;;;;;;;1999.90;999.90;;;5.40;99.90;;;;;;4978752;28;20031;-78
2022/12/05 14:42:04;;;;;;;1999.90;999.90;;;5.40;99.90;;;;;;4988043;28;20035;-78
2022/12/05 14:44:31;;;;;;;1999.90;999.90;;;5.40;99.90;;;;;;4987418;28;20036;-78
2022/12/05 14:47:02;;;;;;;1999.90;999.90;;;5.40;99.90;;;;;;4994247;28;20118;-78
2022/12/05 14:49:49;;;;;;;1999.90;999.90;;;5.40;99.90;;;;;;4988792;28;20050;-78
2022/12/05 14:52:19;;;;;;;1999.90;999.90;;;5.40;99.90;;;;;;4997856;28;20031;-78
2022/12/05 14:54:45;;;;;;;1999.90;999.90;;;5.40;99.90;;;;;;4996605;28;20139;-79
2022/12/05 14:57:15;;;;;;;1999.90;999.90;;;5.30;99.90;;;;;;4997690;28;20143;-77
2022/12/05 14:59:54;;;;;;;1999.90;999.90;;;5.30;99.90;;;;;;5013284;28;20047;-80
2022/12/05 15:02:27;;;;;;;1999.90;999.90;;;5.30;99.90;;;;;;5010639;28;20026;-78
2022/12/05 15:04:59;;;;;;;1999.90;999.90;;;5.30;99.90;;;;;;4989817;28;20042;-78
2022/12/05 15:07:35;;;;;;;1999.90;999.90;;;5.30;99.90;;;;;;4989216;28;20045;-76
2022/12/05 15:10:06;;;;;;;1999.90;999.90;;;5.20;99.90;;;;;;4994383;28;20041;-77
2022/12/05 15:12:42;;;;;;;1999.90;999.90;;;5.20;99.90;;;;;;4993261;28;20114;-77
2022/12/05 15:15:30;;;;;;;1999.90;999.90;;;5.20;99.90;;;;;;4996586;28;20039;-77
2022/12/05 15:18:11;;;;;;;1999.90;999.90;;;5.20;99.90;;;;;;4977091;28;20574;-77
2022/12/05 15:20:44;;;;;;;1999.90;999.90;;;5.20;99.90;;;;;;4998799;28;20042;-77
2022/12/05 15:23:44;;;;;;;1999.90;999.90;;;5.30;99.90;;;;;;5000003;28;20162;-77
2022/12/05 15:26:21;;;;;;;1999.90;999.90;;;5.20;99.90;;;;;;4998738;28;20070;-77
2022/12/05 15:29:11;;;;;;;1999.90;999.90;;;5.20;99.90;;;;;;5002769;28;20054;-76
2022/12/05 15:31:47;;;;;;;1999.90;999.90;;;5.10;99.90;;;;;;4995128;28;20130;-76
2022/12/05 15:34:48;;;;;;;1999.90;999.90;;;5.10;99.90;;;;;;4996536;28;20057;-77
2022/12/05 15:37:25;;;;;;;1999.90;999.90;;;5.10;99.90;;;;;;4996456;28;20023;-77
2022/12/05 15:39:53;;;;;;;1999.90;999.90;;;5.10;99.90;;;;;;4994676;28;20039;-77
2022/12/05 15:42:24;;;;;;;1999.90;999.90;;;5.10;99.90;;;;;;4995099;28;20548;-77
2022/12/05 15:44:50;;;;;;;1999.90;999.90;;;5.10;99.90;;;;;;4996608;28;20054;-77
2022/12/05 15:47:22;;;;;;;1999.90;999.90;;;5.10;99.90;;;;;;4996431;28;20042;-77
2022/12/05 15:49:48;;;;;;;1999.90;999.90;;;5.10;99.90;;;;;;4994988;28;20453;-78
2022/12/05 15:52:37;;;;;;;1999.90;999.90;;;5.10;99.90;;;;;;4995881;28;20544;-77
2022/12/05 15:55:10;;;;;;;1999.90;999.90;;;5.00;99.90;;;;;;4995246;28;20074;-78
2022/12/05 15:57:48;;;;;;;1999.90;999.90;;;5.00;99.90;;;;;;4996055;28;20034;-77
2022/12/05 16:00:16;;;;;;;1999.90;999.90;;;4.90;99.90;;;;;;4994317;28;20058;-77
2022/12/05 16:02:48;;;;;;;1999.90;999.90;;;4.90;99.90;;;;;;4996739;28;20034;-77
2022/12/05 16:05:30;;;;;;;1999.90;999.90;;;4.90;99.90;;;;;;5000449;28;20035;-77
2022/12/05 16:07:55;;;;;;;1999.90;999.90;;;4.90;99.90;;;;;;4997046;28;20093;-77
2022/12/05 16:10:23;;;;;;;1999.90;999.90;;;4.90;99.90;;;;;;4996300;28;20090;-77
2022/12/05 16:12:50;;;;;;;1999.90;999.90;;;4.90;99.90;;;;;;4996468;28;20030;-78
2022/12/05 16:15:23;;;;;;;1999.90;999.90;;;4.80;99.90;;;;;;4996983;28;20089;-77
2022/12/05 16:17:57;;;;;;;1999.90;999.90;;;4.80;99.90;;;;;;4997879;28;20035;-78
2022/12/05 16:20:26;;;;;;;1999.90;999.90;;;4.70;99.90;;;;;;4999168;28;20034;-78
2022/12/05 16:22:58;;;;;;;1999.90;999.90;;;4.60;99.90;;;;;;4998512;28;20093;-78
2022/12/05 16:25:33;;;;;;;1999.90;999.90;;;4.60;99.90;;;;;;4994721;28;20035;-77
2022/12/05 16:28:12;;;;;;;1999.90;999.90;;;4.60;99.90;;;;;;4995611;28;20046;-77
2022/12/05 16:30:38;;;;;;;1999.90;999.90;;;4.60;99.90;;;;;;4996162;28;20034;-75
2022/12/05 16:33:11;;;;;;;1999.90;999.90;;;4.50;99.90;;;;;;4996178;28;20039;-76
2022/12/05 16:35:40;;;;;;;1999.90;999.90;;;4.40;99.90;;;;;;4995651;28;20038;-78
2022/12/05 16:38:18;;;;;;;1999.90;999.90;;;4.40;99.90;;;;;;4993827;28;20037;-77
2022/12/05 16:40:58;;;;;;;1999.90;999.90;;;4.40;99.90;;;;;;4995908;28;20585;-76
2022/12/05 16:43:27;;;;;;;1999.90;999.90;;;4.50;99.90;;;;;;4996910;28;20031;-79
2022/12/05 16:45:57;;;;;;;1999.90;999.90;;;4.50;99.90;;;;;;4995752;28;20807;-78
2022/12/05 16:48:37;;;;;;;1999.90;999.90;;;4.60;99.90;;;;;;4993842;28;20043;-78
2022/12/05 16:51:12;;;;;;;1999.90;999.90;;;4.70;99.90;;;;;;4996537;28;20404;-77
2022/12/05 16:53:39;;;;;;;1999.90;999.90;;;4.70;99.90;;;;;;4995545;28;20067;-77
2022/12/05 16:56:06;;;;;;;1999.90;999.90;;;4.70;99.90;;;;;;4996302;28;20046;-78
2022/12/05 16:58:34;;;;;;;1999.90;999.90;;;4.60;99.90;;;;;;4995879;28;20122;-77
2022/12/05 17:01:02;;;;;;;1999.90;999.90;;;4.60;99.90;;;;;;4995810;28;20090;-77
2022/12/05 17:03:28;;;;;;;1999.90;999.90;;;4.60;99.90;;;;;;4995129;28;20461;-77
2022/12/05 17:05:54;;;;;;;1999.90;999.90;;;4.60;99.90;;;;;;4994088;28;20114;-77
2022/12/05 17:08:20;;;;;;;1999.90;999.90;;;4.60;99.90;;;;;;4996729;28;20071;-77
2022/12/05 17:10:46;;;;;;;1999.90;999.90;;;4.60;99.90;;;;;;4998149;28;20055;-78
2022/12/05 17:13:14;;;;;;;1999.90;999.90;;;4.60;99.90;;;;;;4999196;28;20053;-79
2022/12/05 17:15:39;;;;;;;1999.90;999.90;;;4.60;99.90;;;;;;4998847;28;20106;-77
2022/12/05 17:18:16;;;;;;;1999.90;999.90;;;4.60;99.90;;;;;;4999175;28;20130;-78
2022/12/05 17:20:51;;;;;;;1999.90;999.90;;;4.50;99.90;;;;;;5000411;28;20882;-78
2022/12/05 17:23:17;;;;;;;1999.90;999.90;;;4.40;99.90;;;;;;5000253;28;20049;-77
2022/12/05 17:25:54;;;;;;;1999.90;999.90;;;4.60;99.90;;;;;;4996438;28;20429;-77
2022/12/05 17:28:21;;;;;;;1999.90;999.90;;;4.60;99.90;;;;;;4997333;28;20551;-77
2022/12/05 17:30:47;;;;;;;1999.90;999.90;;;4.60;99.90;;;;;;4999680;28;20116;-77
2022/12/05 17:33:16;;;;;;;1999.90;999.90;;;4.60;99.90;;;;;;4998544;28;20035;-76
2022/12/05 17:35:41;;;;;;;1999.90;999.90;;;4.70;99.90;;;;;;4996735;28;20031;-78
2022/12/05 17:38:09;;;;;;;1999.90;999.90;;;4.70;99.90;;;;;;5000729;28;20041;-77
2022/12/05 17:40:35;;;;;;;1999.90;999.90;;;4.70;99.90;;;;;;4996448;28;20027;-77
2022/12/05 17:43:01;;;;;;;1999.90;999.90;;;4.70;99.90;;;;;;4995202;28;20047;-77
2022/12/05 17:45:27;;;;;;;1999.90;999.90;;;4.70;99.90;;;;;;4996741;28;20065;-74
2022/12/05 17:47:53;;;;;;;1999.90;999.90;;;4.70;99.90;;;;;;4999982;28;20101;-77